createdAt,value
2018-03-25T00:01:33.621Z,8.70
2018-03-25T00:04:03.568Z,8.64
2018-03-25T00:06:32.796Z,8.60
2018-03-25T00:09:01.789Z,8.60
2018-03-25T00:11:30.683Z,8.59
2018-03-25T00:13:59.954Z,8.56
2018-03-25T00:16:29.016Z,8.47
2018-03-25T00:18:57.912Z,8.44
2018-03-25T00:21:28.002Z,8.43
2018-03-25T00:23:56.864Z,8.40
2018-03-25T00:26:25.751Z,8.39
2018-03-25T00:28:56.254Z,8.39
2018-03-25T00:31:25.182Z,8.38
2018-03-25T00:33:54.176Z,8.38
2018-03-25T00:36:23.096Z,8.37
2018-03-25T00:38:52.017Z,8.32
2018-03-25T00:41:20.882Z,8.32
2018-03-25T00:43:51.117Z,8.26
2018-03-25T00:46:20.006Z,8.25
2018-03-25T00:48:48.898Z,8.29
2018-03-25T00:51:19.406Z,8.29
2018-03-25T00:53:48.296Z,8.25
2018-03-25T00:56:17.210Z,8.22
2018-03-25T00:58:46.489Z,8.25
2018-03-25T01:01:16.117Z,8.27
2018-03-25T01:03:45.378Z,8.26
2018-03-25T01:06:14.605Z,8.25
2018-03-25T01:08:43.533Z,8.24
2018-03-25T01:11:12.478Z,8.16
2018-03-25T01:13:42.429Z,8.14
2018-03-25T01:16:12.140Z,8.12
2018-03-25T01:18:49.611Z,8.08
2018-03-25T01:21:29.283Z,8.07
2018-03-25T01:23:58.447Z,7.96
2018-03-25T01:26:27.959Z,7.99
2018-03-25T01:28:56.831Z,7.98
2018-03-25T01:31:25.710Z,7.98
2018-03-25T01:33:54.920Z,7.93
2018-03-25T01:36:23.809Z,7.87
2018-03-25T01:38:52.651Z,7.84
2018-03-25T01:41:21.995Z,7.79
2018-03-25T01:43:50.936Z,7.74
2018-03-25T01:46:19.834Z,7.75
2018-03-25T01:48:48.758Z,7.71
2018-03-25T01:51:17.687Z,7.65
2018-03-25T01:53:46.601Z,7.62
2018-03-25T01:56:15.870Z,7.62
2018-03-25T01:58:44.821Z,7.53
2018-03-25T02:01:13.755Z,7.45
2018-03-25T02:03:44.014Z,7.43
2018-03-25T02:06:13.050Z,7.43
2018-03-25T02:08:41.961Z,7.44
2018-03-25T02:11:11.550Z,7.41
2018-03-25T02:13:40.407Z,7.37
2018-03-25T02:16:09.449Z,7.26
2018-03-25T02:18:39.753Z,7.25
2018-03-25T02:21:09.362Z,7.21
2018-03-25T02:23:38.410Z,7.23
2018-03-25T02:26:07.795Z,7.25
2018-03-25T02:28:36.675Z,7.27
2018-03-25T02:31:05.645Z,7.21
2018-03-25T02:33:34.991Z,7.24
2018-03-25T02:36:05.224Z,7.22
2018-03-25T02:38:34.072Z,7.17
2018-03-25T02:41:03.541Z,7.12
2018-03-25T02:43:32.408Z,7.13
2018-03-25T02:46:02.564Z,7.10
2018-03-25T02:48:31.985Z,7.06
2018-03-25T02:51:00.908Z,7.10
2018-03-25T02:53:29.812Z,7.03
2018-03-25T02:55:59.110Z,7.02
2018-03-25T02:58:27.964Z,7.03
2018-03-25T03:00:56.861Z,7.03
2018-03-25T03:03:25.759Z,6.99
2018-03-25T03:05:54.644Z,6.94
2018-03-25T03:08:23.981Z,6.93
2018-03-25T03:10:52.864Z,6.83
2018-03-25T03:13:21.760Z,6.86
2018-03-25T03:15:51.115Z,6.86
2018-03-25T03:18:20.105Z,6.84
2018-03-25T03:20:49.100Z,6.84
2018-03-25T03:23:18.529Z,6.77
2018-03-25T03:25:47.456Z,6.75
2018-03-25T03:28:16.706Z,6.64
2018-03-25T03:30:45.618Z,6.62
2018-03-25T03:33:14.745Z,6.65
2018-03-25T03:35:43.677Z,6.61
2018-03-25T03:38:12.990Z,6.50
2018-03-25T03:40:41.870Z,6.44
2018-03-25T03:43:11.316Z,6.42
2018-03-25T03:45:40.521Z,6.46
2018-03-25T03:48:09.804Z,6.41
2018-03-25T03:50:38.792Z,6.36
2018-03-25T03:53:08.194Z,6.35
2018-03-25T03:55:37.138Z,6.33
2018-03-25T03:58:06.243Z,6.31
2018-03-25T04:00:35.588Z,6.25
2018-03-25T04:03:04.503Z,6.28
2018-03-25T04:05:33.366Z,6.27
2018-03-25T04:08:04.723Z,6.20
2018-03-25T04:10:33.654Z,6.18
2018-03-25T04:13:03.939Z,6.17
2018-03-25T04:15:33.201Z,6.21
2018-03-25T04:18:02.484Z,6.14
2018-03-25T04:20:31.445Z,6.15
2018-03-25T04:23:00.863Z,6.11
2018-03-25T04:25:29.858Z,6.12
2018-03-25T04:27:58.803Z,6.00
2018-03-25T04:30:28.261Z,5.99
2018-03-25T04:32:57.175Z,6.03
2018-03-25T04:35:26.114Z,6.06
2018-03-25T04:37:55.453Z,5.97
2018-03-25T04:40:24.322Z,5.94
2018-03-25T04:42:53.239Z,5.94
2018-03-25T04:45:22.432Z,5.91
2018-03-25T04:50:19.314Z,5.87
2018-03-25T04:52:48.580Z,5.84
2018-03-25T04:55:17.437Z,5.81
2018-03-25T04:57:46.333Z,5.78
2018-03-25T05:00:17.767Z,5.82
2018-03-25T05:02:47.060Z,5.82
2018-03-25T05:05:16.440Z,5.88
2018-03-25T05:07:45.452Z,5.87
2018-03-25T05:10:14.928Z,5.86
2018-03-25T05:12:43.871Z,5.81
2018-03-25T05:15:13.166Z,5.79
2018-03-25T05:17:42.145Z,5.75
2018-03-25T05:20:11.773Z,5.79
2018-03-25T05:22:40.943Z,5.76
2018-03-25T05:25:09.803Z,5.74
2018-03-25T05:27:38.715Z,5.73
2018-03-25T05:30:08.073Z,5.66
2018-03-25T05:32:37.392Z,5.60
2018-03-25T05:35:06.439Z,5.65
2018-03-25T05:37:35.718Z,5.71
2018-03-25T05:40:05.373Z,5.69
2018-03-25T05:42:34.268Z,5.71
2018-03-25T05:45:04.885Z,5.66
2018-03-25T05:47:33.783Z,5.64
2018-03-25T05:50:03.655Z,5.73
2018-03-25T05:52:32.904Z,5.75
2018-03-25T05:55:01.869Z,5.80
2018-03-25T05:57:30.997Z,5.79
2018-03-25T05:59:59.887Z,5.85
2018-03-25T06:02:28.743Z,5.92
2018-03-25T06:04:57.613Z,5.98
2018-03-25T06:07:26.996Z,6.05
2018-03-25T06:09:56.359Z,6.10
2018-03-25T06:12:25.375Z,6.16
2018-03-25T06:14:55.697Z,6.23
2018-03-25T06:17:24.719Z,6.26
2018-03-25T06:19:53.715Z,6.28
2018-03-25T06:22:23.112Z,6.32
2018-03-25T06:24:52.061Z,6.31
2018-03-25T06:28:23.594Z,6.27
2018-03-25T06:30:52.700Z,6.37
2018-03-25T06:33:22.487Z,6.48
2018-03-25T06:35:51.957Z,6.55
2018-03-25T06:38:20.922Z,6.62
2018-03-25T06:40:49.804Z,6.67
2018-03-25T06:43:19.205Z,6.73
2018-03-25T06:45:48.411Z,6.74
2018-03-25T06:48:17.368Z,6.85
2018-03-25T06:50:47.298Z,6.86
2018-03-25T06:53:16.240Z,6.92
2018-03-25T06:55:45.184Z,6.90
2018-03-25T06:58:14.863Z,6.89
2018-03-25T07:00:43.905Z,7.05
2018-03-25T07:03:13.353Z,7.08
2018-03-25T07:05:42.710Z,7.08
2018-03-25T07:08:11.724Z,7.20
2018-03-25T07:10:40.711Z,7.24
2018-03-25T07:13:09.678Z,7.37
2018-03-25T07:15:38.750Z,7.52
2018-03-25T07:18:07.912Z,7.52
2018-03-25T07:20:37.326Z,7.57
2018-03-25T07:23:06.660Z,7.58
2018-03-25T07:25:35.524Z,7.67
2018-03-25T07:28:05.614Z,7.67
2018-03-25T07:30:34.576Z,7.70
2018-03-25T07:33:03.552Z,7.83
2018-03-25T07:35:32.839Z,7.89
2018-03-25T07:38:02.610Z,7.89
2018-03-25T07:40:31.605Z,7.97
2018-03-25T07:43:01.132Z,8.01
2018-03-25T07:45:30.064Z,7.93
2018-03-25T07:47:59.031Z,7.99
2018-03-25T07:50:27.970Z,8.01
2018-03-25T07:52:56.997Z,8.13
2018-03-25T07:55:25.888Z,8.25
2018-03-25T07:57:55.223Z,8.33
2018-03-25T08:00:25.308Z,8.47
2018-03-25T08:02:54.247Z,8.57
2018-03-25T08:05:23.630Z,8.53
2018-03-25T08:07:52.630Z,8.67
2018-03-25T08:10:21.602Z,8.88
2018-03-25T08:12:50.945Z,9.02
2018-03-25T08:15:20.498Z,9.24
2018-03-25T08:17:49.397Z,9.27
2018-03-25T08:20:19.718Z,9.42
2018-03-25T08:22:48.699Z,9.59
2018-03-25T08:25:17.661Z,9.62
2018-03-25T08:27:47.101Z,9.97
2018-03-25T08:30:16.105Z,10.15
2018-03-25T08:32:45.037Z,10.53
2018-03-25T08:35:14.228Z,10.96
2018-03-25T08:37:43.148Z,11.30
2018-03-25T08:40:12.098Z,11.61
2018-03-25T08:42:42.465Z,11.61
2018-03-25T08:45:11.338Z,11.76
2018-03-25T08:47:40.190Z,11.61
2018-03-25T08:50:09.528Z,11.65
2018-03-25T08:52:38.529Z,11.86
2018-03-25T08:55:07.802Z,12.19
2018-03-25T08:57:36.700Z,12.09
2018-03-25T09:00:07.184Z,12.21
2018-03-25T09:02:37.509Z,12.27
2018-03-25T09:05:06.678Z,12.57
2018-03-25T09:07:35.626Z,12.47
2018-03-25T09:10:07.182Z,12.28
2018-03-25T09:12:36.367Z,12.64
2018-03-25T09:15:06.140Z,12.90
2018-03-25T09:17:35.579Z,12.58
2018-03-25T09:20:06.804Z,12.79
2018-03-25T09:22:35.746Z,12.79
2018-03-25T09:25:05.822Z,13.03
2018-03-25T09:27:35.674Z,13.32
2018-03-25T09:30:05.349Z,13.44
2018-03-25T09:32:34.520Z,13.75
2018-03-25T09:35:04.062Z,14.04
2018-03-25T09:37:33.759Z,13.99
2018-03-25T09:40:04.482Z,14.10
2018-03-25T09:42:33.378Z,14.59
2018-03-25T09:45:02.793Z,14.22
2018-03-25T09:47:32.140Z,14.85
2018-03-25T09:50:03.908Z,15.03
2018-03-25T09:52:32.817Z,15.32
2018-03-25T09:55:02.237Z,15.29
2018-03-25T09:57:31.141Z,15.65
2018-03-25T10:00:00.030Z,16.06
2018-03-25T10:02:33.496Z,16.39
2018-03-25T10:05:03.165Z,16.70
2018-03-25T10:07:32.066Z,16.62
2018-03-25T10:10:01.275Z,16.33
2018-03-25T10:12:30.193Z,16.07
2018-03-25T10:14:59.118Z,16.24
2018-03-25T10:17:28.991Z,16.68
2018-03-25T10:19:57.871Z,16.79
2018-03-25T10:22:26.810Z,16.98
2018-03-25T10:24:56.094Z,17.32
2018-03-25T10:27:25.023Z,17.57
2018-03-25T10:59:23.503Z,18.56
2018-03-25T11:01:52.530Z,18.18
2018-03-25T11:04:21.420Z,18.88
2018-03-25T11:06:50.288Z,19.28
2018-03-25T11:09:19.200Z,19.86
2018-03-25T11:11:48.107Z,19.63
2018-03-25T11:14:17.541Z,19.25
2018-03-25T11:16:46.432Z,19.33
2018-03-25T11:19:15.785Z,19.68
2018-03-25T11:21:45.245Z,19.58
2018-03-25T11:24:14.623Z,20.26
2018-03-25T11:26:44.687Z,20.93
2018-03-25T11:29:13.904Z,21.74
2018-03-25T11:31:42.858Z,22.05
2018-03-25T11:34:12.138Z,21.94
2018-03-25T11:36:41.515Z,22.06
2018-03-25T11:39:10.465Z,22.22
2018-03-25T11:41:46.392Z,22.35
2018-03-25T11:44:15.933Z,23.17
2018-03-25T11:46:44.881Z,22.73
2018-03-25T11:49:13.772Z,23.26
2018-03-25T11:51:42.960Z,23.46
2018-03-25T11:54:11.835Z,23.46
2018-03-25T11:56:41.486Z,23.22
2018-03-25T11:59:10.372Z,23.79
2018-03-25T12:01:39.285Z,24.29
2018-03-25T12:04:08.994Z,24.33
2018-03-25T12:06:37.999Z,24.54
2018-03-25T12:09:06.945Z,24.45
2018-03-25T12:11:36.139Z,24.59
2018-03-25T12:14:05.978Z,24.16
2018-03-25T12:16:34.863Z,24.83
2018-03-25T12:19:04.524Z,24.68
2018-03-25T12:21:33.477Z,24.86
2018-03-25T12:24:04.419Z,24.45
2018-03-25T12:26:33.359Z,24.74
2018-03-25T12:29:02.270Z,24.71
2018-03-25T12:31:31.505Z,24.69
2018-03-25T12:34:00.396Z,24.50
2018-03-25T12:36:29.349Z,24.28
2018-03-25T12:38:58.318Z,24.22
2018-03-25T12:41:27.226Z,24.15
2018-03-25T12:43:56.453Z,24.33
2018-03-25T12:46:25.467Z,24.62
2018-03-25T12:48:54.480Z,24.80
2018-03-25T12:51:23.684Z,24.73
2018-03-25T12:53:52.660Z,25.36
2018-03-25T12:56:21.773Z,25.31
2018-03-25T12:58:51.434Z,24.86
2018-03-25T13:01:21.669Z,24.50
2018-03-25T13:03:50.840Z,24.03
2018-03-25T13:08:58.819Z,24.90
2018-03-25T13:11:27.693Z,24.92
2018-03-25T13:13:58.571Z,24.68
2018-03-25T13:16:27.496Z,24.68
2018-03-25T13:18:56.467Z,24.67
2018-03-25T13:21:25.428Z,25.02
2018-03-25T13:23:54.365Z,25.29
2018-03-25T13:26:23.740Z,25.60
2018-03-25T13:28:52.768Z,25.21
2018-03-25T13:31:22.680Z,24.97
2018-03-25T13:33:52.085Z,25.29
2018-03-25T13:36:21.284Z,25.19
2018-03-25T13:38:51.261Z,26.04
2018-03-25T13:41:20.625Z,26.39
2018-03-25T13:43:49.625Z,26.23
2018-03-25T13:46:18.621Z,26.71
2018-03-25T13:48:47.525Z,26.14
2018-03-25T13:51:16.464Z,27.13
2018-03-25T13:53:45.817Z,27.51
2018-03-25T13:56:14.729Z,27.75
2018-03-25T13:58:43.627Z,28.19
2018-03-25T14:01:12.785Z,28.02
2018-03-25T14:03:41.699Z,28.70
2018-03-25T14:06:10.634Z,28.12
2018-03-25T14:08:39.973Z,27.87
2018-03-25T14:11:09.116Z,28.78
2018-03-25T14:13:37.981Z,28.57
2018-03-25T14:16:07.104Z,28.73
2018-03-25T14:18:36.300Z,28.20
2018-03-25T14:21:06.457Z,28.67
2018-03-25T14:23:35.771Z,29.20
2018-03-25T14:26:05.445Z,28.88
2018-03-25T14:28:34.418Z,28.61
2018-03-25T14:31:04.079Z,29.58
2018-03-25T14:33:32.962Z,30.10
2018-03-25T14:36:03.551Z,29.83
2018-03-25T14:38:32.442Z,30.56
2018-03-25T14:41:01.512Z,30.88
2018-03-25T14:43:30.847Z,30.56
2018-03-25T14:45:59.752Z,29.70
2018-03-25T14:48:28.612Z,28.70
2018-03-25T14:50:57.524Z,28.12
2018-03-25T14:53:26.421Z,27.96
2018-03-25T14:55:55.288Z,27.25
2018-03-25T14:58:24.660Z,27.41
2018-03-25T15:00:53.516Z,27.05
2018-03-25T15:03:22.442Z,26.65
2018-03-25T15:05:51.580Z,26.20
2018-03-25T15:08:20.513Z,26.06
2018-03-25T15:10:49.440Z,26.05
2018-03-25T15:13:18.958Z,25.91
2018-03-25T15:15:47.865Z,25.77
2018-03-25T15:18:17.279Z,25.22
2018-03-25T15:20:46.152Z,24.99
2018-03-25T15:23:15.070Z,24.59
2018-03-25T15:25:44.269Z,24.63
2018-03-25T15:28:13.156Z,25.06
2018-03-25T15:30:42.102Z,25.15
2018-03-25T15:33:11.307Z,25.34
2018-03-25T15:35:40.191Z,25.36
2018-03-25T15:38:09.420Z,25.63
2018-03-25T15:40:38.805Z,25.44
2018-03-25T15:43:07.736Z,25.18
2018-03-25T15:45:36.630Z,25.17
2018-03-25T15:48:07.663Z,25.29
2018-03-25T15:50:36.557Z,24.73
2018-03-25T15:53:05.517Z,24.61
2018-03-25T15:55:34.389Z,24.41
2018-03-25T15:58:04.423Z,24.14
2018-03-25T16:00:34.149Z,24.07
2018-03-25T16:03:04.121Z,24.09
2018-03-25T16:05:32.969Z,23.83
2018-03-25T16:08:02.955Z,23.52
2018-03-25T16:10:31.862Z,23.26
2018-03-25T16:13:00.771Z,23.23
2018-03-25T16:15:29.960Z,23.03
2018-03-25T16:17:59.888Z,23.00
2018-03-25T16:20:28.780Z,23.15
2018-03-25T16:22:57.950Z,23.09
2018-03-25T16:25:26.869Z,22.97
2018-03-25T16:27:55.710Z,22.78
2018-03-25T16:30:25.752Z,22.61
2018-03-25T16:32:54.596Z,22.59
2018-03-25T16:35:23.445Z,22.15
2018-03-25T16:37:52.307Z,21.88
2018-03-25T16:40:21.167Z,21.55
2018-03-25T16:42:50.045Z,21.26
2018-03-25T16:45:19.317Z,21.02
2018-03-25T16:47:48.195Z,20.74
2018-03-25T16:50:17.634Z,20.44
2018-03-25T16:52:46.711Z,20.03
2018-03-25T16:55:15.631Z,19.86
2018-03-25T16:57:44.539Z,19.45
2018-03-25T17:00:13.595Z,19.18
2018-03-25T17:02:42.477Z,18.87
2018-03-25T17:05:11.713Z,18.72
2018-03-25T17:07:40.579Z,18.58
2018-03-25T17:10:10.846Z,18.32
2018-03-25T17:12:40.229Z,18.19
2018-03-25T17:15:09.248Z,18.13
2018-03-25T17:17:38.216Z,18.05
2018-03-25T17:20:07.362Z,17.90
2018-03-25T17:22:36.230Z,17.80
2018-03-25T17:25:06.037Z,17.62
2018-03-25T17:27:34.916Z,17.47
2018-03-25T17:30:04.644Z,17.35
2018-03-25T17:32:34.234Z,17.22
2018-03-25T17:35:03.926Z,17.10
2018-03-25T17:37:33.517Z,16.98
2018-03-25T17:40:03.561Z,16.84
2018-03-25T17:42:32.516Z,16.76
2018-03-25T17:45:01.603Z,16.67
2018-03-25T17:47:30.819Z,16.62
2018-03-25T17:49:59.871Z,16.59
2018-03-25T17:52:28.712Z,16.57
2018-03-25T17:54:57.907Z,16.51
2018-03-25T17:57:26.790Z,16.40
2018-03-25T17:59:56.696Z,16.35
2018-03-25T18:02:25.561Z,16.30
2018-03-25T18:04:54.435Z,16.23
2018-03-25T18:07:23.620Z,16.17
2018-03-25T18:09:52.523Z,16.12
2018-03-25T18:12:21.439Z,16.08
2018-03-25T18:14:50.596Z,16.05
2018-03-25T18:17:33.462Z,15.96
2018-03-25T18:19:48.636Z,15.91
2018-03-25T18:22:17.825Z,15.86
2018-03-25T18:24:46.675Z,15.83
2018-03-25T18:27:15.702Z,15.76
2018-03-25T18:29:44.939Z,15.69
2018-03-25T18:32:14.105Z,15.66
2018-03-25T18:34:43.078Z,15.59
2018-03-25T18:37:12.280Z,15.57
2018-03-25T18:39:41.211Z,15.52
2018-03-25T18:42:10.292Z,15.48
2018-03-25T18:44:39.172Z,15.44
2018-03-25T18:47:08.097Z,15.40
2018-03-25T18:49:37.858Z,15.37
2018-03-25T18:52:06.941Z,15.33
2018-03-25T18:54:35.852Z,15.28
2018-03-25T18:57:05.240Z,15.23
2018-03-25T18:59:34.101Z,15.19
2018-03-25T19:02:04.791Z,15.17
2018-03-25T19:04:35.593Z,15.14
2018-03-25T19:07:04.984Z,15.11
2018-03-25T19:09:33.845Z,15.06
2018-03-25T19:12:04.626Z,15.03
2018-03-25T19:14:33.496Z,15.02
2018-03-25T19:17:02.498Z,14.95
2018-03-25T19:19:31.704Z,14.92
2018-03-25T19:22:00.656Z,14.87
2018-03-25T19:24:29.615Z,14.84
2018-03-25T19:26:58.590Z,14.80
2018-03-25T19:29:27.527Z,14.81
2018-03-25T19:31:56.804Z,14.78
2018-03-25T19:34:26.322Z,14.75
2018-03-25T19:36:55.258Z,14.72
2018-03-25T19:39:24.475Z,14.61
2018-03-25T19:41:53.643Z,14.60
2018-03-25T19:44:22.548Z,14.55
2018-03-25T19:46:51.464Z,14.45
2018-03-25T19:49:20.315Z,14.43
2018-03-25T19:51:49.189Z,14.41
2018-03-25T19:54:18.379Z,14.38
2018-03-25T19:56:47.306Z,14.35
2018-03-25T19:59:16.235Z,14.35
2018-03-25T20:01:45.434Z,14.32
2018-03-25T20:04:14.558Z,14.28
2018-03-25T20:06:43.505Z,14.25
2018-03-25T20:09:13.160Z,14.20
2018-03-25T20:11:42.078Z,14.19
2018-03-25T20:14:11.765Z,14.12
2018-03-25T20:16:40.631Z,14.10
2018-03-25T20:19:09.560Z,14.06
2018-03-25T20:21:38.705Z,14.03
2018-03-25T20:24:07.664Z,14.02
2018-03-25T20:26:36.569Z,13.95
2018-03-25T20:29:06.190Z,13.85
2018-03-25T20:31:35.153Z,13.81
2018-03-25T20:34:05.171Z,13.77
2018-03-25T20:36:34.392Z,13.79
2018-03-25T20:39:04.582Z,13.76
2018-03-25T20:41:33.590Z,13.72
2018-03-25T20:44:04.051Z,13.63
2018-03-25T20:46:32.971Z,13.57
2018-03-25T20:49:02.187Z,13.49
2018-03-25T20:51:31.925Z,13.42
2018-03-25T20:54:00.827Z,13.39
2018-03-25T20:56:30.105Z,13.35
2018-03-25T20:58:59.018Z,13.28
2018-03-25T21:01:27.931Z,13.21
2018-03-25T21:03:56.836Z,13.15
2018-03-25T21:06:26.057Z,13.11
2018-03-25T21:08:54.959Z,13.09
2018-03-25T21:11:24.103Z,13.06
2018-03-25T21:13:53.100Z,13.02
2018-03-25T21:16:21.979Z,12.99
2018-03-25T21:18:51.105Z,12.96
2018-03-25T21:21:19.987Z,12.91
2018-03-25T21:23:48.870Z,12.92
2018-03-25T21:26:18.719Z,12.88
2018-03-25T21:28:47.648Z,12.85
2018-03-25T21:31:16.528Z,12.84
2018-03-25T21:33:45.473Z,12.83
2018-03-25T21:36:14.312Z,12.75
2018-03-25T21:38:43.855Z,12.71
2018-03-25T21:41:12.783Z,12.67
2018-03-25T21:43:41.661Z,12.66
2018-03-25T21:46:11.866Z,12.64
2018-03-25T21:48:40.774Z,12.59
2018-03-25T21:51:09.788Z,12.50
2018-03-25T21:53:40.745Z,12.48
2018-03-25T21:56:09.719Z,12.44
2018-03-25T21:58:38.577Z,12.39
2018-03-25T22:01:08.315Z,12.34
2018-03-25T22:03:37.220Z,12.32
2018-03-25T22:06:06.104Z,12.29
2018-03-25T22:08:35.237Z,12.28
2018-03-25T22:11:05.291Z,12.25
2018-03-25T22:13:34.184Z,12.22
2018-03-25T22:16:03.731Z,12.21
2018-03-25T22:18:32.628Z,12.20
2018-03-25T22:21:02.361Z,12.25
2018-03-25T22:23:31.211Z,12.26
2018-03-25T22:26:00.076Z,12.30
2018-03-25T22:28:29.204Z,12.28
2018-03-25T22:30:58.062Z,12.28
2018-03-25T22:33:26.969Z,12.29
2018-03-25T22:35:56.458Z,12.33
2018-03-25T22:38:25.327Z,12.29
2018-03-25T22:40:54.173Z,12.30
2018-03-25T22:43:23.055Z,12.32
2018-03-25T22:45:51.942Z,12.31
2018-03-25T22:48:20.784Z,12.28
2018-03-25T22:50:50.043Z,12.33
2018-03-25T22:53:19.031Z,12.35
2018-03-25T22:55:47.886Z,12.32
2018-03-25T22:58:16.732Z,12.31
2018-03-25T23:00:45.679Z,12.32
2018-03-25T23:03:14.837Z,12.31
2018-03-25T23:05:43.926Z,12.27
2018-03-25T23:08:13.220Z,12.24
2018-03-25T23:10:42.160Z,12.21
2018-03-25T23:13:11.045Z,12.17
2018-03-25T23:15:40.045Z,12.12
2018-03-25T23:18:09.396Z,12.13
2018-03-25T23:20:38.245Z,12.11
2018-03-25T23:23:07.314Z,12.09
2018-03-25T23:25:36.448Z,12.09
2018-03-25T23:28:06.026Z,12.07
2018-03-25T23:30:34.879Z,12.10
2018-03-25T23:33:04.170Z,12.11
2018-03-25T23:35:33.030Z,12.07
2018-03-25T23:38:05.322Z,12.07
2018-03-25T23:40:35.131Z,12.07
2018-03-25T23:43:04.491Z,12.07
2018-03-25T23:45:33.657Z,12.07
2018-03-25T23:48:03.266Z,12.03
2018-03-25T23:50:32.202Z,11.98
2018-03-25T23:53:01.520Z,11.93
2018-03-25T23:55:30.387Z,11.90
2018-03-25T23:57:59.225Z,11.90
